sensor_id;sensor_type;location;lat;lon;timestamp;pressure;altitude;pressure_sealevel;temperature;humidity
20987;BME280;10652;50.306;8.570;2023-04-01T00:00:55;96167.41;;;8.40;100.00
20987;BME280;10652;50.306;8.570;2023-04-01T00:04:57;96162.56;;;8.85;98.99
20987;BME280;10652;50.306;8.570;2023-04-01T00:08:59;96169.06;;;8.66;94.74
20987;BME280;10652;50.306;8.570;2023-04-01T00:13:02;96165.72;;;8.52;94.46
20987;BME280;10652;50.306;8.570;2023-04-01T00:17:04;96158.41;;;8.44;95.00
20987;BME280;10652;50.306;8.570;2023-04-01T00:21:06;96160.69;;;8.36;95.62
20987;BME280;10652;50.306;8.570;2023-04-01T00:25:08;96159.38;;;8.31;95.97
20987;BME280;10652;50.306;8.570;2023-04-01T00:29:11;96158.22;;;8.22;97.03
20987;BME280;10652;50.306;8.570;2023-04-01T00:33:13;96160.31;;;8.17;98.14
20987;BME280;10652;50.306;8.570;2023-04-01T00:37:16;96160.47;;;8.14;98.00
20987;BME280;10652;50.306;8.570;2023-04-01T00:41:19;96156.28;;;8.11;98.37
20987;BME280;10652;50.306;8.570;2023-04-01T00:45:27;96150.44;;;8.08;98.60
20987;BME280;10652;50.306;8.570;2023-04-01T00:49:33;96160.34;;;8.03;97.94
20987;BME280;10652;50.306;8.570;2023-04-01T00:53:42;96160.22;;;8.04;96.89
20987;BME280;10652;50.306;8.570;2023-04-01T00:57:45;96157.53;;;8.06;96.90
20987;BME280;10652;50.306;8.570;2023-04-01T01:01:49;96156.69;;;8.05;96.91
20987;BME280;10652;50.306;8.570;2023-04-01T01:06:07;96152.50;;;8.03;96.78
20987;BME280;10652;50.306;8.570;2023-04-01T01:14:45;96167.34;;;8.02;97.13
20987;BME280;10652;50.306;8.570;2023-04-01T01:18:53;96161.28;;;8.02;97.78
20987;BME280;10652;50.306;8.570;2023-04-01T01:27:41;96148.44;;;7.99;97.31
20987;BME280;10652;50.306;8.570;2023-04-01T01:32:06;96156.28;;;7.99;97.16
20987;BME280;10652;50.306;8.570;2023-04-01T01:36:12;96156.28;;;7.99;97.82
20987;BME280;10652;50.306;8.570;2023-04-01T01:40:16;96160.84;;;7.95;97.73
20987;BME280;10652;50.306;8.570;2023-04-01T01:44:19;96151.44;;;7.93;98.26
20987;BME280;10652;50.306;8.570;2023-04-01T01:48:24;96160.22;;;7.92;99.18
20987;BME280;10652;50.306;8.570;2023-04-01T01:52:28;96157.72;;;7.90;99.00
20987;BME280;10652;50.306;8.570;2023-04-01T01:56:32;96150.06;;;7.87;99.55
20987;BME280;10652;50.306;8.570;2023-04-01T02:00:37;96152.69;;;7.87;100.00
20987;BME280;10652;50.306;8.570;2023-04-01T02:04:42;96146.81;;;7.83;99.97
20987;BME280;10652;50.306;8.570;2023-04-01T02:09:06;96147.03;;;7.80;100.00
20987;BME280;10652;50.306;8.570;2023-04-01T02:13:17;96145.34;;;7.79;100.00
20987;BME280;10652;50.306;8.570;2023-04-01T02:17:25;96142.00;;;7.77;100.00
20987;BME280;10652;50.306;8.570;2023-04-01T02:21:31;96143.91;;;7.75;100.00
20987;BME280;10652;50.306;8.570;2023-04-01T02:25:35;96142.22;;;7.74;100.00
20987;BME280;10652;50.306;8.570;2023-04-01T02:29:39;96131.97;;;7.71;100.00
20987;BME280;10652;50.306;8.570;2023-04-01T02:33:42;96135.81;;;7.66;100.00
20987;BME280;10652;50.306;8.570;2023-04-01T02:37:45;96144.50;;;7.66;100.00
20987;BME280;10652;50.306;8.570;2023-04-01T02:41:48;96140.13;;;7.67;100.00
20987;BME280;10652;50.306;8.570;2023-04-01T02:45:50;96133.22;;;7.66;100.00
20987;BME280;10652;50.306;8.570;2023-04-01T02:49:52;96127.13;;;7.65;100.00
20987;BME280;10652;50.306;8.570;2023-04-01T02:54:00;96124.84;;;7.61;100.00
20987;BME280;10652;50.306;8.570;2023-04-01T02:58:03;96125.88;;;7.58;100.00
20987;BME280;10652;50.306;8.570;2023-04-01T03:02:06;96126.81;;;7.57;100.00
20987;BME280;10652;50.306;8.570;2023-04-01T03:06:11;96126.91;;;7.56;100.00
20987;BME280;10652;50.306;8.570;2023-04-01T03:10:13;96132.97;;;7.56;100.00
20987;BME280;10652;50.306;8.570;2023-04-01T03:14:15;96131.41;;;7.54;100.00
20987;BME280;10652;50.306;8.570;2023-04-01T03:18:18;96136.72;;;7.52;100.00
20987;BME280;10652;50.306;8.570;2023-04-01T03:22:20;96128.25;;;7.49;100.00
20987;BME280;10652;50.306;8.570;2023-04-01T03:26:22;96138.72;;;7.49;100.00
20987;BME280;10652;50.306;8.570;2023-04-01T03:30:26;96134.91;;;7.79;100.00
20987;BME280;10652;50.306;8.570;2023-04-01T03:34:28;96144.97;;;7.86;100.00
20987;BME280;10652;50.306;8.570;2023-04-01T03:38:30;96141.59;;;7.71;100.00
20987;BME280;10652;50.306;8.570;2023-04-01T03:42:32;96133.91;;;7.55;100.00
20987;BME280;10652;50.306;8.570;2023-04-01T03:46:35;96132.44;;;7.51;100.00
20987;BME280;10652;50.306;8.570;2023-04-01T03:50:37;96145.69;;;7.48;100.00
20987;BME280;10652;50.306;8.570;2023-04-01T03:54:39;96147.69;;;7.45;100.00
20987;BME280;10652;50.306;8.570;2023-04-01T03:58:42;96137.72;;;7.37;100.00
20987;BME280;10652;50.306;8.570;2023-04-01T04:02:45;96143.16;;;7.34;100.00
20987;BME280;10652;50.306;8.570;2023-04-01T04:06:52;96150.97;;;7.34;100.00
20987;BME280;10652;50.306;8.570;2023-04-01T04:10:56;96129.34;;;7.32;100.00
20987;BME280;10652;50.306;8.570;2023-04-01T04:14:59;96142.22;;;7.35;100.00
20987;BME280;10652;50.306;8.570;2023-04-01T04:19:02;96129.34;;;7.32;100.00
20987;BME280;10652;50.306;8.570;2023-04-01T04:23:04;96150.22;;;7.32;100.00
20987;BME280;10652;50.306;8.570;2023-04-01T04:27:06;96156.28;;;7.32;100.00
20987;BME280;10652;50.306;8.570;2023-04-01T04:31:11;96147.53;;;7.33;100.00
20987;BME280;10652;50.306;8.570;2023-04-01T04:35:16;96144.06;;;7.33;100.00
20987;BME280;10652;50.306;8.570;2023-04-01T04:39:18;96141.47;;;7.33;100.00
20987;BME280;10652;50.306;8.570;2023-04-01T04:43:21;96139.69;;;7.33;100.00
20987;BME280;10652;50.306;8.570;2023-04-01T04:47:23;96138.13;;;7.31;100.00
20987;BME280;10652;50.306;8.570;2023-04-01T04:51:25;96145.97;;;7.31;100.00
20987;BME280;10652;50.306;8.570;2023-04-01T04:55:28;96141.75;;;7.28;100.00
20987;BME280;10652;50.306;8.570;2023-04-01T04:59:50;96131.59;;;7.24;100.00
20987;BME280;10652;50.306;8.570;2023-04-01T05:04:00;96156.72;;;7.26;100.00
20987;BME280;10652;50.306;8.570;2023-04-01T05:08:02;96147.06;;;7.27;100.00
20987;BME280;10652;50.306;8.570;2023-04-01T05:12:04;96155.66;;;7.29;100.00
20987;BME280;10652;50.306;8.570;2023-04-01T05:16:39;96141.03;;;7.26;100.00
20987;BME280;10652;50.306;8.570;2023-04-01T05:20:49;96148.75;;;7.28;100.00
20987;BME280;10652;50.306;8.570;2023-04-01T05:24:52;96145.97;;;7.31;100.00
20987;BME280;10652;50.306;8.570;2023-04-01T05:28:54;96144.81;;;7.35;100.00
20987;BME280;10652;50.306;8.570;2023-04-01T05:32:56;96144.72;;;7.36;100.00
20987;BME280;10652;50.306;8.570;2023-04-01T05:36:58;96144.63;;;7.38;100.00
20987;BME280;10652;50.306;8.570;2023-04-01T05:41:02;96147.78;;;7.43;100.00
20987;BME280;10652;50.306;8.570;2023-04-01T05:45:07;96149.47;;;7.44;100.00
20987;BME280;10652;50.306;8.570;2023-04-01T05:49:36;96147.56;;;7.46;100.00
20987;BME280;10652;50.306;8.570;2023-04-01T05:53:38;96136.19;;;7.47;100.00
20987;BME280;10652;50.306;8.570;2023-04-01T05:57:40;96143.81;;;7.50;100.00
20987;BME280;10652;50.306;8.570;2023-04-01T06:01:43;96146.53;;;7.49;100.00
20987;BME280;10652;50.306;8.570;2023-04-01T06:05:46;96142.88;;;7.51;100.00
20987;BME280;10652;50.306;8.570;2023-04-01T06:09:48;96136.50;;;7.55;100.00
20987;BME280;10652;50.306;8.570;2023-04-01T06:14:00;96150.97;;;7.61;100.00
20987;BME280;10652;50.306;8.570;2023-04-01T06:32:22;96143.06;;;7.88;100.00
20987;BME280;10652;50.306;8.570;2023-04-01T06:49:59;96153.28;;;8.30;100.00
20987;BME280;10652;50.306;8.570;2023-04-01T06:54:34;96147.44;;;9.01;100.00
20987;BME280;10652;50.306;8.570;2023-04-01T06:58:58;96155.38;;;9.12;100.00
20987;BME280;10652;50.306;8.570;2023-04-01T07:03:10;96148.06;;;8.92;96.90
20987;BME280;10652;50.306;8.570;2023-04-01T07:07:29;96149.16;;;8.77;97.02
20987;BME280;10652;50.306;8.570;2023-04-01T07:11:38;96150.53;;;8.69;97.75
20987;BME280;10652;50.306;8.570;2023-04-01T07:16:19;96156.59;;;8.70;98.17
20987;BME280;10652;50.306;8.570;2023-04-01T07:20:32;96158.16;;;8.73;98.39
20987;BME280;10652;50.306;8.570;2023-04-01T07:24:40;96162.75;;;8.82;98.60
20987;BME280;10652;50.306;8.570;2023-04-01T07:28:44;96154.44;;;9.00;98.88
20987;BME280;10652;50.306;8.570;2023-04-01T07:33:11;96164.69;;;9.16;98.31
20987;BME280;10652;50.306;8.570;2023-04-01T07:37:23;96161.13;;;9.41;97.85
20987;BME280;10652;50.306;8.570;2023-04-01T07:45:57;96165.78;;;9.96;95.48
20987;BME280;10652;50.306;8.570;2023-04-01T07:50:27;96170.75;;;10.12;91.92
20987;BME280;10652;50.306;8.570;2023-04-01T07:54:41;96171.38;;;10.26;91.87
20987;BME280;10652;50.306;8.570;2023-04-01T08:03:51;96186.19;;;10.38;90.87
20987;BME280;10652;50.306;8.570;2023-04-01T08:12:50;96183.28;;;10.19;90.78
20987;BME280;10652;50.306;8.570;2023-04-01T08:22:21;96201.72;;;10.07;91.13
20987;BME280;10652;50.306;8.570;2023-04-01T08:26:38;96197.53;;;10.04;91.47
20987;BME280;10652;50.306;8.570;2023-04-01T08:30:53;96201.13;;;10.03;91.91
20987;BME280;10652;50.306;8.570;2023-04-01T08:35:11;96199.72;;;10.10;91.87
20987;BME280;10652;50.306;8.570;2023-04-01T08:39:28;96203.31;;;10.20;92.94
20987;BME280;10652;50.306;8.570;2023-04-01T08:43:51;96216.25;;;10.34;93.34
20987;BME280;10652;50.306;8.570;2023-04-01T09:01:27;96213.63;;;10.45;93.04
20987;BME280;10652;50.306;8.570;2023-04-01T09:10:35;96222.41;;;10.79;92.30
20987;BME280;10652;50.306;8.570;2023-04-01T09:19:55;96225.19;;;11.11;88.79
20987;BME280;10652;50.306;8.570;2023-04-01T09:24:40;96228.91;;;11.20;89.44
20987;BME280;10652;50.306;8.570;2023-04-01T09:28:57;96227.69;;;11.35;88.25
20987;BME280;10652;50.306;8.570;2023-04-01T09:46:31;96240.69;;;11.48;85.20
20987;BME280;10652;50.306;8.570;2023-04-01T09:51:00;96236.13;;;11.61;84.09
20987;BME280;10652;50.306;8.570;2023-04-01T09:55:47;96244.25;;;11.69;83.70
20987;BME280;10652;50.306;8.570;2023-04-01T10:09:23;96263.06;;;11.42;82.71
20987;BME280;10652;50.306;8.570;2023-04-01T10:13:49;96252.53;;;11.42;84.38
20987;BME280;10652;50.306;8.570;2023-04-01T10:26:48;96260.06;;;11.47;83.64
20987;BME280;10652;50.306;8.570;2023-04-01T10:31:35;96254.81;;;11.47;84.45
20987;BME280;10652;50.306;8.570;2023-04-01T10:36:04;96261.00;;;11.57;84.50
20987;BME280;10652;50.306;8.570;2023-04-01T10:54:29;96255.28;;;12.26;86.05
20987;BME280;10652;50.306;8.570;2023-04-01T11:30:57;96284.91;;;11.76;81.55
20987;BME280;10652;50.306;8.570;2023-04-01T11:44:12;96294.91;;;11.82;82.70
20987;BME280;10652;50.306;8.570;2023-04-01T11:49:00;96303.78;;;11.70;82.55
20987;BME280;10652;50.306;8.570;2023-04-01T12:01:44;96313.13;;;11.52;84.50
20987;BME280;10652;50.306;8.570;2023-04-01T12:10:36;96317.44;;;11.30;86.30
20987;BME280;10652;50.306;8.570;2023-04-01T12:14:47;96320.75;;;11.32;86.13
20987;BME280;10652;50.306;8.570;2023-04-01T12:18:59;96319.22;;;11.41;87.09
20987;BME280;10652;50.306;8.570;2023-04-01T12:27:43;96317.53;;;11.51;86.10
20987;BME280;10652;50.306;8.570;2023-04-01T12:31:56;96328.88;;;11.85;86.56
20987;BME280;10652;50.306;8.570;2023-04-01T12:49:16;96321.94;;;12.70;82.38
20987;BME280;10652;50.306;8.570;2023-04-01T12:58:06;96339.09;;;12.10;80.42
20987;BME280;10652;50.306;8.570;2023-04-01T13:15:47;96344.03;;;12.58;78.17
20987;BME280;10652;50.306;8.570;2023-04-01T13:20:04;96347.03;;;12.53;79.63
20987;BME280;10652;50.306;8.570;2023-04-01T13:24:24;96343.81;;;12.50;78.81
20987;BME280;10652;50.306;8.570;2023-04-01T13:28:38;96349.34;;;12.67;79.20
20987;BME280;10652;50.306;8.570;2023-04-01T13:37:46;96340.97;;;12.94;79.41
20987;BME280;10652;50.306;8.570;2023-04-01T13:50:20;96345.56;;;12.81;79.58
20987;BME280;10652;50.306;8.570;2023-04-01T13:55:01;96351.06;;;13.10;80.23
20987;BME280;10652;50.306;8.570;2023-04-01T14:03:44;96359.34;;;13.05;78.27
20987;BME280;10652;50.306;8.570;2023-04-01T14:12:39;96366.81;;;12.80;79.76
20987;BME280;10652;50.306;8.570;2023-04-01T14:21:31;96366.81;;;13.00;79.72
20987;BME280;10652;50.306;8.570;2023-04-01T14:26:00;96371.00;;;13.24;79.66
20987;BME280;10652;50.306;8.570;2023-04-01T14:30:27;96370.16;;;13.23;78.45
20987;BME280;10652;50.306;8.570;2023-04-01T14:35:11;96368.91;;;13.27;78.40
20987;BME280;10652;50.306;8.570;2023-04-01T14:47:54;96376.47;;;13.52;75.08
20987;BME280;10652;50.306;8.570;2023-04-01T14:52:10;96376.66;;;13.40;73.90
20987;BME280;10652;50.306;8.570;2023-04-01T14:56:37;96388.22;;;13.07;74.59
20987;BME280;10652;50.306;8.570;2023-04-01T15:09:32;96408.25;;;12.78;78.10
20987;BME280;10652;50.306;8.570;2023-04-01T15:13:54;96403.97;;;12.97;81.09
20987;BME280;10652;50.306;8.570;2023-04-01T15:18:32;96390.41;;;13.43;81.23
20987;BME280;10652;50.306;8.570;2023-04-01T15:31:16;96415.50;;;13.58;75.57
20987;BME280;10652;50.306;8.570;2023-04-01T15:49:04;96444.13;;;12.13;82.56
20987;BME280;10652;50.306;8.570;2023-04-01T16:11:03;96465.91;;;10.90;88.98
20987;BME280;10652;50.306;8.570;2023-04-01T16:23:59;96505.63;;;10.00;95.42
20987;BME280;10652;50.306;8.570;2023-04-01T16:32:53;96505.63;;;9.87;96.49
20987;BME280;10652;50.306;8.570;2023-04-01T16:37:16;96495.88;;;9.89;96.01
20987;BME280;10652;50.306;8.570;2023-04-01T16:41:31;96505.53;;;9.89;95.82
20987;BME280;10652;50.306;8.570;2023-04-01T16:49:54;96519.25;;;10.05;96.05
20987;BME280;10652;50.306;8.570;2023-04-01T16:54:05;96530.19;;;9.99;96.67
20987;BME280;10652;50.306;8.570;2023-04-01T16:58:09;96533.13;;;10.07;97.50
20987;BME280;10652;50.306;8.570;2023-04-01T17:02:17;96536.03;;;10.15;97.98
20987;BME280;10652;50.306;8.570;2023-04-01T17:06:37;96543.56;;;10.32;98.95
20987;BME280;10652;50.306;8.570;2023-04-01T17:10:44;96551.75;;;10.40;99.02
20987;BME280;10652;50.306;8.570;2023-04-01T17:15:05;96549.03;;;10.42;97.94
20987;BME280;10652;50.306;8.570;2023-04-01T17:19:40;96555.13;;;10.42;98.85
20987;BME280;10652;50.306;8.570;2023-04-01T17:24:01;96562.25;;;10.53;100.00
20987;BME280;10652;50.306;8.570;2023-04-01T17:42:07;96582.59;;;10.49;98.80
20987;BME280;10652;50.306;8.570;2023-04-01T17:46:32;96584.94;;;10.41;100.00
20987;BME280;10652;50.306;8.570;2023-04-01T17:50:52;96591.66;;;10.33;100.00
20987;BME280;10652;50.306;8.570;2023-04-01T17:55:31;96603.84;;;10.21;100.00
20987;BME280;10652;50.306;8.570;2023-04-01T17:59:49;96605.28;;;10.00;100.00
20987;BME280;10652;50.306;8.570;2023-04-01T18:13:12;96638.69;;;9.98;100.00
20987;BME280;10652;50.306;8.570;2023-04-01T18:21:49;96673.78;;;9.83;100.00
20987;BME280;10652;50.306;8.570;2023-04-01T18:26:05;96665.75;;;9.72;100.00
20987;BME280;10652;50.306;8.570;2023-04-01T18:34:38;96678.38;;;9.52;100.00
20987;BME280;10652;50.306;8.570;2023-04-01T18:39:00;96688.88;;;9.52;100.00
20987;BME280;10652;50.306;8.570;2023-04-01T18:51:57;96706.66;;;9.47;100.00
20987;BME280;10652;50.306;8.570;2023-04-01T18:56:03;96720.06;;;9.43;100.00
20987;BME280;10652;50.306;8.570;2023-04-01T19:00:13;96725.25;;;9.30;100.00
20987;BME280;10652;50.306;8.570;2023-04-01T19:04:31;96732.72;;;9.22;100.00
20987;BME280;10652;50.306;8.570;2023-04-01T19:08:38;96732.56;;;9.25;100.00
20987;BME280;10652;50.306;8.570;2023-04-01T19:12:52;96741.41;;;9.37;100.00
20987;BME280;10652;50.306;8.570;2023-04-01T19:17:05;96748.13;;;9.41;100.00
20987;BME280;10652;50.306;8.570;2023-04-01T19:21:57;96748.06;;;9.42;100.00
20987;BME280;10652;50.306;8.570;2023-04-01T19:26:04;96760.97;;;9.45;100.00
20987;BME280;10652;50.306;8.570;2023-04-01T19:34:26;96759.72;;;9.51;100.00
20987;BME280;10652;50.306;8.570;2023-04-01T19:38:37;96767.69;;;9.49;100.00
20987;BME280;10652;50.306;8.570;2023-04-01T19:46:49;96780.06;;;9.47;100.00
20987;BME280;10652;50.306;8.570;2023-04-01T19:51:06;96777.72;;;9.43;100.00
20987;BME280;10652;50.306;8.570;2023-04-01T19:59:38;96786.72;;;9.39;100.00
20987;BME280;10652;50.306;8.570;2023-04-01T20:03:50;96797.66;;;9.31;100.00
20987;BME280;10652;50.306;8.570;2023-04-01T20:08:21;96809.47;;;9.24;100.00
20987;BME280;10652;50.306;8.570;2023-04-01T20:16:58;96810.22;;;9.26;100.00
20987;BME280;10652;50.306;8.570;2023-04-01T20:21:09;96822.94;;;9.18;100.00
20987;BME280;10652;50.306;8.570;2023-04-01T20:25:25;96825.94;;;9.12;100.00
20987;BME280;10652;50.306;8.570;2023-04-01T20:29:40;96833.03;;;9.10;100.00
20987;BME280;10652;50.306;8.570;2023-04-01T20:34:04;96836.59;;;9.09;100.00
20987;BME280;10652;50.306;8.570;2023-04-01T20:48:07;96848.16;;;8.91;100.00
20987;BME280;10652;50.306;8.570;2023-04-01T20:51:39;96855.97;;;9.06;100.00
20987;BME280;10652;50.306;8.570;2023-04-01T21:00:24;96861.84;;;8.96;100.00
20987;BME280;10652;50.306;8.570;2023-04-01T21:05:05;96864.16;;;8.86;100.00
20987;BME280;10652;50.306;8.570;2023-04-01T21:09:43;96873.06;;;8.84;100.00
20987;BME280;10652;50.306;8.570;2023-04-01T21:14:27;96874.25;;;8.78;100.00
20987;BME280;10652;50.306;8.570;2023-04-01T21:19:17;96875.91;;;8.65;100.00
20987;BME280;10652;50.306;8.570;2023-04-01T21:36:40;96899.44;;;8.35;100.00
20987;BME280;10652;50.306;8.570;2023-04-01T21:54:28;96922.31;;;8.16;100.00
20987;BME280;10652;50.306;8.570;2023-04-01T21:59:00;96935.31;;;8.17;100.00
20987;BME280;10652;50.306;8.570;2023-04-01T22:03:18;96932.28;;;8.25;100.00
20987;BME280;10652;50.306;8.570;2023-04-01T22:16:22;96950.41;;;8.28;100.00
20987;BME280;10652;50.306;8.570;2023-04-01T22:20:34;96953.88;;;8.29;100.00
20987;BME280;10652;50.306;8.570;2023-04-01T22:29:17;96962.38;;;8.32;100.00
20987;BME280;10652;50.306;8.570;2023-04-01T22:37:58;96968.56;;;8.47;100.00
20987;BME280;10652;50.306;8.570;2023-04-01T22:42:21;96973.44;;;8.53;100.00
20987;BME280;10652;50.306;8.570;2023-04-01T22:51:17;96980.88;;;8.60;100.00
20987;BME280;10652;50.306;8.570;2023-04-01T22:55:27;96974.13;;;8.56;100.00
20987;BME280;10652;50.306;8.570;2023-04-01T22:59:35;96980.94;;;8.59;100.00
20987;BME280;10652;50.306;8.570;2023-04-01T23:03:41;96985.78;;;8.66;100.00
20987;BME280;10652;50.306;8.570;2023-04-01T23:08:03;96986.63;;;8.67;100.00
20987;BME280;10652;50.306;8.570;2023-04-01T23:12:13;97001.81;;;8.60;100.00
20987;BME280;10652;50.306;8.570;2023-04-01T23:16:16;96997.09;;;8.51;100.00
20987;BME280;10652;50.306;8.570;2023-04-01T23:29:03;97012.72;;;8.53;100.00
20987;BME280;10652;50.306;8.570;2023-04-01T23:33:17;97013.19;;;8.59;100.00
20987;BME280;10652;50.306;8.570;2023-04-01T23:37:22;97023.59;;;8.61;100.00
20987;BME280;10652;50.306;8.570;2023-04-01T23:41:30;97022.56;;;8.63;100.00
20987;BME280;10652;50.306;8.570;2023-04-01T23:45:33;97027.97;;;8.60;100.00
20987;BME280;10652;50.306;8.570;2023-04-01T23:49:39;97037.44;;;8.63;100.00
20987;BME280;10652;50.306;8.570;2023-04-01T23:53:45;97033.63;;;8.68;100.00
